createdAt,value
2023-01-21T00:03:13.763Z,10.05
2023-01-21T00:06:29.939Z,9.65
2023-01-21T00:09:45.955Z,9.75
2023-01-21T00:13:01.991Z,10.43
2023-01-21T00:16:19.099Z,10.28
2023-01-21T00:19:35.324Z,9.28
2023-01-21T00:22:51.114Z,9.75
2023-01-21T00:26:12.321Z,9.03
2023-01-21T00:29:28.550Z,8.90
2023-01-21T00:32:44.559Z,9.50
2023-01-21T00:36:10.943Z,8.58
2023-01-21T00:39:27.189Z,9.20
2023-01-21T00:48:01.255Z,10.75
2023-01-21T00:51:17.605Z,10.13
2023-01-21T00:54:34.021Z,10.60
2023-01-21T01:02:50.855Z,10.20
2023-01-21T01:06:13.767Z,10.60
2023-01-21T01:09:30.112Z,10.68
2023-01-21T01:12:46.122Z,10.20
2023-01-21T01:16:03.440Z,10.40
2023-01-21T01:19:20.925Z,10.20
2023-01-21T01:22:37.272Z,9.20
2023-01-21T01:26:01.414Z,9.95
2023-01-21T01:29:19.833Z,9.35
2023-01-21T01:32:35.910Z,8.60
2023-01-21T01:35:52.431Z,8.35
2023-01-21T01:39:08.623Z,8.18
2023-01-21T01:42:25.529Z,8.30
2023-01-21T01:45:42.899Z,8.05
2023-01-21T01:49:05.056Z,8.38
2023-01-21T01:52:23.847Z,8.30
2023-01-21T01:55:43.381Z,8.83
2023-01-21T01:59:00.874Z,7.78
2023-01-21T02:02:21.247Z,8.20
2023-01-21T02:05:39.278Z,7.35
2023-01-21T02:08:57.508Z,7.70
2023-01-21T02:12:16.117Z,7.73
2023-01-21T02:15:37.836Z,7.73
2023-01-21T02:18:58.267Z,7.35
2023-01-21T02:22:20.660Z,7.58
2023-01-21T02:26:11.831Z,7.40
2023-01-21T02:29:55.501Z,7.68
2023-01-21T02:34:01.351Z,7.45
2023-01-21T02:37:22.876Z,7.05
2023-01-21T02:40:43.745Z,6.93
2023-01-21T02:47:27.256Z,6.63
2023-01-21T02:50:48.757Z,6.60
2023-01-21T02:54:05.102Z,6.28
2023-01-21T02:57:25.585Z,6.55
2023-01-21T03:04:31.691Z,6.40
2023-01-21T03:07:52.768Z,6.25
2023-01-21T03:11:14.796Z,6.43
2023-01-21T03:17:53.100Z,7.00
2023-01-21T03:21:12.929Z,5.90
2023-01-21T03:24:29.962Z,6.03
2023-01-21T03:27:48.761Z,5.90
2023-01-21T03:34:23.409Z,5.93
2023-01-21T03:41:01.697Z,5.88
2023-01-21T03:47:37.469Z,5.38
2023-01-21T03:51:00.716Z,5.93
2023-01-21T03:54:16.983Z,5.23
2023-01-21T03:57:33.098Z,5.88
2023-01-21T04:00:50.141Z,4.83
2023-01-21T04:04:06.620Z,4.65
2023-01-21T04:07:22.908Z,5.28
2023-01-21T04:10:39.007Z,4.53
2023-01-21T04:13:55.175Z,4.85
2023-01-21T04:17:11.656Z,4.98
2023-01-21T04:20:27.979Z,4.88
2023-01-21T04:23:43.962Z,4.53
2023-01-21T04:27:00.372Z,4.85
2023-01-21T04:33:32.313Z,4.83
2023-01-21T04:36:48.370Z,4.80
2023-01-21T04:40:04.503Z,4.65
2023-01-21T04:43:20.591Z,4.73
2023-01-21T04:49:53.637Z,4.50
2023-01-21T04:53:09.774Z,4.55
2023-01-21T04:56:25.846Z,4.40
2023-01-21T04:59:41.788Z,4.30
2023-01-21T05:02:57.879Z,4.35
2023-01-21T05:06:14.671Z,4.45
2023-01-21T05:09:30.806Z,4.10
2023-01-21T05:12:46.777Z,4.05
2023-01-21T05:16:02.858Z,4.00
2023-01-21T05:19:19.153Z,3.85
2023-01-21T05:22:35.221Z,3.70
2023-01-21T05:25:51.438Z,4.03
2023-01-21T05:29:07.425Z,4.08
2023-01-21T05:32:23.090Z,3.83
2023-01-21T05:35:39.752Z,3.83
2023-01-21T05:38:55.975Z,3.95
2023-01-21T05:42:12.587Z,3.60
2023-01-21T05:48:44.235Z,3.93
2023-01-21T05:52:00.299Z,3.95
2023-01-21T05:55:17.620Z,4.30
2023-01-21T05:58:35.024Z,4.08
2023-01-21T06:01:51.108Z,3.80
2023-01-21T06:05:07.217Z,3.88
2023-01-21T06:08:24.153Z,3.95
2023-01-21T06:11:40.408Z,4.05
2023-01-21T06:14:56.643Z,4.00
2023-01-21T06:18:13.399Z,3.73
2023-01-21T06:21:29.413Z,4.18
2023-01-21T06:24:45.491Z,4.20
2023-01-21T06:28:03.758Z,4.05
2023-01-21T06:34:35.381Z,4.05
2023-01-21T06:37:51.677Z,3.80
2023-01-21T06:41:07.860Z,3.95
2023-01-21T06:44:24.453Z,4.20
2023-01-21T06:47:40.814Z,4.63
2023-01-21T06:50:57.228Z,4.18
2023-01-21T06:54:13.799Z,4.30
2023-01-21T06:57:29.932Z,4.20
2023-01-21T07:00:46.007Z,4.00
2023-01-21T07:04:02.394Z,4.40
2023-01-21T07:07:19.019Z,4.70
2023-01-21T07:10:35.507Z,4.35
2023-01-21T07:13:51.513Z,4.30
2023-01-21T07:17:07.651Z,4.40
2023-01-21T07:20:24.565Z,4.50
2023-01-21T07:23:40.757Z,4.95
2023-01-21T07:26:57.627Z,5.40
2023-01-21T07:30:16.708Z,4.63
2023-01-21T07:33:33.310Z,4.40
2023-01-21T07:36:49.611Z,4.58
2023-01-21T07:40:06.012Z,4.38
2023-01-21T07:43:22.451Z,4.50
2023-01-21T07:46:39.118Z,4.83
2023-01-21T07:49:56.172Z,5.95
2023-01-21T07:53:12.365Z,4.28
2023-01-21T07:56:28.624Z,4.25
2023-01-21T07:59:46.072Z,5.38
2023-01-21T08:03:02.884Z,4.05
2023-01-21T08:06:19.093Z,5.58
2023-01-21T08:09:35.743Z,4.85
2023-01-21T08:12:52.293Z,4.75
2023-01-21T08:19:24.320Z,4.73
2023-01-21T08:22:41.345Z,4.55
2023-01-21T08:26:01.290Z,5.50
2023-01-21T08:29:17.648Z,4.45
2023-01-21T08:32:38.231Z,4.13
2023-01-21T08:35:57.273Z,4.20
2023-01-21T08:39:17.145Z,4.60
2023-01-21T08:42:33.192Z,4.38
2023-01-21T08:49:05.938Z,4.73
2023-01-21T08:52:22.367Z,4.78
2023-01-21T08:55:38.573Z,4.38
2023-01-21T08:58:56.835Z,4.73
2023-01-21T09:02:13.571Z,5.30
2023-01-21T09:05:30.387Z,5.20
2023-01-21T09:08:46.481Z,4.65
2023-01-21T09:12:02.823Z,4.90
2023-01-21T09:15:20.121Z,5.18
2023-01-21T09:18:36.656Z,4.73
2023-01-21T09:21:53.127Z,5.75
2023-01-21T09:25:12.225Z,5.20
2023-01-21T09:28:29.183Z,5.50
2023-01-21T09:35:01.638Z,5.28
2023-01-21T09:38:18.182Z,6.08
2023-01-21T09:41:39.648Z,5.38
2023-01-21T09:44:59.516Z,5.80
2023-01-21T09:48:39.830Z,11.85
2023-01-21T09:52:12.209Z,6.73
2023-01-21T09:55:32.613Z,7.65
2023-01-21T09:58:53.364Z,7.73
2023-01-21T10:02:13.343Z,8.55
2023-01-21T10:05:58.799Z,8.95
2023-01-21T10:09:47.247Z,9.13
2023-01-21T10:13:19.688Z,8.70
2023-01-21T10:16:42.078Z,9.68
2023-01-21T10:20:03.287Z,10.33
2023-01-21T10:23:26.375Z,9.55
2023-01-21T10:26:44.383Z,10.23
2023-01-21T10:30:07.457Z,9.60
2023-01-21T10:33:28.218Z,10.40
2023-01-21T10:37:05.203Z,10.48
2023-01-21T10:40:28.570Z,11.00
2023-01-21T10:43:51.729Z,11.23
2023-01-21T10:47:15.330Z,11.95
2023-01-21T10:50:45.321Z,12.45
2023-01-21T10:54:06.426Z,12.55
2023-01-21T10:57:33.492Z,11.90
2023-01-21T11:00:53.282Z,18.55
2023-01-21T11:04:13.481Z,15.03
2023-01-21T11:07:31.057Z,14.15
2023-01-21T11:10:49.378Z,13.88
2023-01-21T11:14:05.926Z,14.45
2023-01-21T11:20:44.781Z,14.28
2023-01-21T11:24:06.638Z,13.83
2023-01-21T11:27:39.232Z,14.60
2023-01-21T11:30:56.082Z,13.88
2023-01-21T11:34:19.072Z,13.63
2023-01-21T11:37:37.912Z,14.10
2023-01-21T11:40:54.379Z,13.73
2023-01-21T11:44:27.580Z,15.15
2023-01-21T11:47:54.556Z,13.93
2023-01-21T11:51:19.068Z,12.70
2023-01-21T11:54:35.468Z,13.23
2023-01-21T11:57:56.035Z,14.83
2023-01-21T12:04:28.123Z,15.30
2023-01-21T12:07:48.197Z,15.75
2023-01-21T12:11:08.667Z,16.88
2023-01-21T12:14:30.344Z,16.98
2023-01-21T12:17:57.814Z,15.93
2023-01-21T12:21:18.963Z,16.18
2023-01-21T12:24:48.156Z,15.93
2023-01-21T12:28:36.377Z,15.70
2023-01-21T12:31:59.741Z,15.90
2023-01-21T12:35:22.205Z,16.40
2023-01-21T12:38:43.977Z,15.58
2023-01-21T12:42:10.045Z,15.03
2023-01-21T12:45:43.973Z,15.00
2023-01-21T12:49:04.920Z,16.30
2023-01-21T12:52:27.534Z,15.18
2023-01-21T12:55:55.748Z,16.15
2023-01-21T12:59:19.923Z,16.28
2023-01-21T13:05:58.592Z,16.63
2023-01-21T13:09:20.249Z,16.65
2023-01-21T13:12:39.232Z,16.65
2023-01-21T13:15:59.684Z,16.98
2023-01-21T13:19:18.858Z,17.13
2023-01-21T13:22:44.481Z,16.83
2023-01-21T13:26:05.693Z,16.98
2023-01-21T13:29:27.665Z,17.35
2023-01-21T13:32:52.433Z,17.53
2023-01-21T13:36:21.024Z,17.53
2023-01-21T13:39:47.669Z,17.20
2023-01-21T13:43:11.131Z,18.38
2023-01-21T13:46:41.459Z,17.63
2023-01-21T13:50:20.910Z,19.25
2023-01-21T13:53:47.519Z,19.88
2023-01-21T13:57:30.513Z,20.15
2023-01-21T14:06:25.218Z,23.15
2023-01-21T14:09:46.751Z,22.95
2023-01-21T14:13:34.345Z,22.00
2023-01-21T14:17:31.211Z,20.85
2023-01-21T14:21:21.661Z,23.48
2023-01-21T14:25:21.486Z,21.38
2023-01-21T14:28:43.327Z,24.28
2023-01-21T14:32:02.923Z,22.83
2023-01-21T14:35:28.313Z,23.25
2023-01-21T14:38:50.188Z,24.00
2023-01-21T14:42:18.146Z,24.63
2023-01-21T14:45:58.852Z,24.98
2023-01-21T14:49:17.269Z,25.93
2023-01-21T14:52:39.309Z,25.03
2023-01-21T14:56:15.920Z,27.58
2023-01-21T14:59:42.688Z,28.10
2023-01-21T15:03:05.173Z,28.33
2023-01-21T15:06:28.619Z,26.38
2023-01-21T15:09:49.527Z,26.75
2023-01-21T15:13:13.145Z,27.83
2023-01-21T15:19:47.571Z,53.70
2023-01-21T15:23:30.694Z,29.13
2023-01-21T15:26:47.743Z,27.75
2023-01-21T15:30:33.923Z,27.40
2023-01-21T15:33:57.908Z,28.90
2023-01-21T15:37:21.846Z,30.35
2023-01-21T15:40:43.616Z,28.33
2023-01-21T15:44:17.928Z,27.58
2023-01-21T15:50:57.003Z,27.13
2023-01-21T15:54:30.031Z,23.00
2023-01-21T15:57:56.450Z,23.45
2023-01-21T16:06:23.281Z,26.60
2023-01-21T16:09:49.825Z,27.40
2023-01-21T16:13:15.003Z,27.43
2023-01-21T16:16:42.305Z,26.10
2023-01-21T16:20:02.603Z,27.10
2023-01-21T16:23:22.055Z,26.70
2023-01-21T16:26:41.655Z,26.70
2023-01-21T16:30:02.596Z,27.30
2023-01-21T16:33:23.589Z,26.80
2023-01-21T16:36:46.551Z,29.93
2023-01-21T16:40:21.585Z,29.45
2023-01-21T16:43:39.542Z,28.40
2023-01-21T16:46:57.505Z,30.18
2023-01-21T16:50:23.301Z,30.80
2023-01-21T16:53:41.190Z,31.05
2023-01-21T16:57:01.380Z,30.70
2023-01-21T17:00:32.385Z,30.45
2023-01-21T17:03:49.540Z,28.55
2023-01-21T17:07:06.253Z,31.08
2023-01-21T17:10:29.727Z,31.85
2023-01-21T17:13:49.215Z,31.65
2023-01-21T17:17:09.874Z,30.88
2023-01-21T17:20:51.096Z,29.70
2023-01-21T17:24:11.818Z,30.98
2023-01-21T17:27:28.833Z,29.70
2023-01-21T17:30:45.649Z,30.60
2023-01-21T17:34:26.519Z,31.40
2023-01-21T17:37:59.266Z,30.70
2023-01-21T17:41:20.994Z,32.28
2023-01-21T17:44:37.461Z,31.08
2023-01-21T17:48:09.379Z,32.20
2023-01-21T17:51:21.950Z,32.78
2023-01-21T17:54:38.442Z,36.70
2023-01-21T17:57:55.089Z,32.45
2023-01-21T18:01:12.457Z,31.58
2023-01-21T18:04:29.368Z,32.08
2023-01-21T18:07:46.931Z,31.10
2023-01-21T18:11:03.201Z,31.45
2023-01-21T18:14:24.606Z,30.55
2023-01-21T18:17:41.766Z,32.58
2023-01-21T18:20:58.606Z,33.68
2023-01-21T18:24:17.100Z,32.40
2023-01-21T18:27:35.246Z,36.98
2023-01-21T18:30:53.814Z,36.70
2023-01-21T18:34:11.342Z,35.40
2023-01-21T18:37:30.558Z,35.13
2023-01-21T18:40:47.211Z,35.93
2023-01-21T18:44:03.460Z,37.00
2023-01-21T18:47:23.712Z,35.13
2023-01-21T18:50:40.127Z,37.08
2023-01-21T18:53:56.498Z,38.25
2023-01-21T18:57:16.376Z,40.75
2023-01-21T19:00:35.225Z,53.80
2023-01-21T19:03:51.699Z,74.13
2023-01-21T19:07:14.741Z,56.40
2023-01-21T19:10:31.260Z,53.00
2023-01-21T19:13:47.501Z,50.45
2023-01-21T19:17:04.103Z,48.68
2023-01-21T19:20:31.445Z,46.28
2023-01-21T19:23:48.282Z,49.50
2023-01-21T19:27:05.103Z,50.88
2023-01-21T19:30:33.757Z,54.40
2023-01-21T19:33:50.295Z,53.97
2023-01-21T19:37:08.406Z,53.25
2023-01-21T19:40:28.160Z,51.23
2023-01-21T19:43:44.509Z,50.48
2023-01-21T19:47:04.715Z,51.33
2023-01-21T19:50:28.570Z,63.48
2023-01-21T19:53:46.184Z,56.15
2023-01-21T19:57:02.556Z,55.78
2023-01-21T20:00:29.577Z,60.78
2023-01-21T20:03:59.357Z,60.35
2023-01-21T20:07:04.281Z,69.98
2023-01-21T20:10:28.243Z,77.43
2023-01-21T20:13:44.567Z,70.28
2023-01-21T20:17:03.686Z,69.55
2023-01-21T20:20:30.755Z,65.85
2023-01-21T20:23:47.255Z,66.95
2023-01-21T20:27:04.594Z,69.55
2023-01-21T20:30:29.510Z,67.70
2023-01-21T20:33:46.823Z,67.98
2023-01-21T20:37:03.765Z,65.05
2023-01-21T20:40:26.692Z,63.40
2023-01-21T20:43:43.081Z,64.58
2023-01-21T20:46:59.525Z,63.03
2023-01-21T20:50:27.029Z,61.45
2023-01-21T20:53:45.931Z,68.20
2023-01-21T20:57:02.102Z,64.95
2023-01-21T21:00:27.791Z,67.35
2023-01-21T21:03:44.048Z,62.10
2023-01-21T21:07:00.281Z,61.65
2023-01-21T21:10:26.805Z,60.08
2023-01-21T21:13:43.417Z,59.68
2023-01-21T21:17:01.049Z,59.20
2023-01-21T21:20:25.563Z,62.23
2023-01-21T21:23:42.178Z,56.00
2023-01-21T21:26:58.969Z,55.30
2023-01-21T21:30:21.784Z,54.25
2023-01-21T21:33:42.162Z,53.58
2023-01-21T21:36:58.566Z,52.63
2023-01-21T21:40:18.875Z,51.78
2023-01-21T21:43:37.951Z,52.33
2023-01-21T21:47:08.268Z,52.23
2023-01-21T21:50:24.923Z,52.28
2023-01-21T21:53:41.379Z,52.35
2023-01-21T21:56:57.610Z,49.95
2023-01-21T22:00:17.872Z,49.60
2023-01-21T22:03:34.261Z,49.08
2023-01-21T22:06:50.759Z,47.05
2023-01-21T22:10:07.054Z,46.00
2023-01-21T22:13:24.309Z,44.98
2023-01-21T22:16:41.193Z,46.08
2023-01-21T22:19:57.576Z,44.73
2023-01-21T22:23:13.906Z,44.98
2023-01-21T22:26:33.113Z,45.48
2023-01-21T22:29:49.733Z,44.48
2023-01-21T22:33:06.533Z,46.73
2023-01-21T22:36:26.327Z,43.63
2023-01-21T22:39:42.569Z,45.68
2023-01-21T22:43:00.850Z,46.35
2023-01-21T22:46:18.896Z,45.40
2023-01-21T22:49:36.295Z,50.08
2023-01-21T22:52:55.571Z,49.48
2023-01-21T22:56:13.928Z,51.30
2023-01-21T22:59:30.092Z,52.35
2023-01-21T23:02:46.215Z,49.90
2023-01-21T23:06:09.516Z,52.08
2023-01-21T23:09:26.129Z,52.08
2023-01-21T23:12:44.607Z,49.50
2023-01-21T23:16:01.542Z,49.45
2023-01-21T23:19:18.067Z,45.15
2023-01-21T23:22:34.241Z,44.18
2023-01-21T23:25:52.380Z,44.13
2023-01-21T23:29:08.551Z,44.43
2023-01-21T23:32:25.443Z,43.13
2023-01-21T23:35:43.010Z,43.08
2023-01-21T23:38:59.603Z,43.95
2023-01-21T23:42:15.938Z,43.03
2023-01-21T23:45:32.089Z,43.03
2023-01-21T23:48:48.891Z,41.98
2023-01-21T23:52:06.492Z,43.25
2023-01-21T23:55:22.743Z,43.93
2023-01-21T23:58:41.791Z,43.95
